sensor_id;sensor_type;location;lat;lon;timestamp;P1;durP1;ratioP1;P2;durP2;ratioP2
9940;SDS011;5009;50.656;7.188;2023-08-12T00:01:20;17.10;;;15.43;;
9940;SDS011;5009;50.656;7.188;2023-08-12T00:03:46;15.77;;;14.02;;
9940;SDS011;5009;50.656;7.188;2023-08-12T00:06:13;18.25;;;16.45;;
9940;SDS011;5009;50.656;7.188;2023-08-12T00:08:38;19.63;;;16.23;;
9940;SDS011;5009;50.656;7.188;2023-08-12T00:11:04;19.00;;;17.10;;
9940;SDS011;5009;50.656;7.188;2023-08-12T00:13:29;20.30;;;17.92;;
9940;SDS011;5009;50.656;7.188;2023-08-12T00:15:55;20.52;;;18.40;;
9940;SDS011;5009;50.656;7.188;2023-08-12T00:18:21;19.20;;;17.42;;
9940;SDS011;5009;50.656;7.188;2023-08-12T00:20:47;20.08;;;17.90;;
9940;SDS011;5009;50.656;7.188;2023-08-12T00:23:13;19.95;;;17.98;;
9940;SDS011;5009;50.656;7.188;2023-08-12T00:25:38;19.63;;;17.83;;
9940;SDS011;5009;50.656;7.188;2023-08-12T00:28:04;19.48;;;17.48;;
9940;SDS011;5009;50.656;7.188;2023-08-12T00:30:30;19.83;;;17.95;;
9940;SDS011;5009;50.656;7.188;2023-08-12T00:32:55;21.50;;;19.60;;
9940;SDS011;5009;50.656;7.188;2023-08-12T00:35:21;20.45;;;18.50;;
9940;SDS011;5009;50.656;7.188;2023-08-12T00:37:46;21.60;;;19.48;;
9940;SDS011;5009;50.656;7.188;2023-08-12T00:40:12;22.58;;;20.38;;
9940;SDS011;5009;50.656;7.188;2023-08-12T00:42:38;22.10;;;20.00;;
9940;SDS011;5009;50.656;7.188;2023-08-12T00:45:06;21.65;;;19.05;;
9940;SDS011;5009;50.656;7.188;2023-08-12T00:47:35;22.27;;;20.05;;
9940;SDS011;5009;50.656;7.188;2023-08-12T00:50:01;20.35;;;18.50;;
9940;SDS011;5009;50.656;7.188;2023-08-12T00:52:27;23.40;;;19.90;;
9940;SDS011;5009;50.656;7.188;2023-08-12T00:54:53;22.85;;;20.65;;
9940;SDS011;5009;50.656;7.188;2023-08-12T00:57:19;21.10;;;19.15;;
9940;SDS011;5009;50.656;7.188;2023-08-12T00:59:44;20.30;;;18.38;;
9940;SDS011;5009;50.656;7.188;2023-08-12T01:02:10;19.52;;;17.83;;
9940;SDS011;5009;50.656;7.188;2023-08-12T01:04:37;19.08;;;17.38;;
9940;SDS011;5009;50.656;7.188;2023-08-12T01:07:03;18.63;;;16.88;;
9940;SDS011;5009;50.656;7.188;2023-08-12T01:09:28;19.83;;;18.08;;
9940;SDS011;5009;50.656;7.188;2023-08-12T01:11:57;18.08;;;16.17;;
9940;SDS011;5009;50.656;7.188;2023-08-12T01:14:26;19.15;;;17.27;;
9940;SDS011;5009;50.656;7.188;2023-08-12T01:16:59;17.88;;;16.23;;
9940;SDS011;5009;50.656;7.188;2023-08-12T01:22:02;16.52;;;14.90;;
9940;SDS011;5009;50.656;7.188;2023-08-12T01:25:02;15.82;;;14.38;;
9940;SDS011;5009;50.656;7.188;2023-08-12T01:27:20;14.50;;;13.10;;
9940;SDS011;5009;50.656;7.188;2023-08-12T01:29:46;14.05;;;12.10;;
9940;SDS011;5009;50.656;7.188;2023-08-12T01:32:34;14.50;;;13.10;;
9940;SDS011;5009;50.656;7.188;2023-08-12T01:35:13;14.68;;;13.38;;
9940;SDS011;5009;50.656;7.188;2023-08-12T01:37:43;14.32;;;13.13;;
9940;SDS011;5009;50.656;7.188;2023-08-12T01:40:10;14.23;;;12.98;;
9940;SDS011;5009;50.656;7.188;2023-08-12T01:42:36;12.70;;;11.50;;
9940;SDS011;5009;50.656;7.188;2023-08-12T01:45:04;13.57;;;12.27;;
9940;SDS011;5009;50.656;7.188;2023-08-12T01:47:30;12.85;;;11.75;;
9940;SDS011;5009;50.656;7.188;2023-08-12T01:49:57;13.55;;;12.35;;
9940;SDS011;5009;50.656;7.188;2023-08-12T01:52:22;12.52;;;11.43;;
9940;SDS011;5009;50.656;7.188;2023-08-12T01:54:48;12.48;;;11.40;;
9940;SDS011;5009;50.656;7.188;2023-08-12T01:57:14;12.18;;;11.05;;
9940;SDS011;5009;50.656;7.188;2023-08-12T01:59:39;12.48;;;11.32;;
9940;SDS011;5009;50.656;7.188;2023-08-12T02:02:06;12.60;;;11.48;;
9940;SDS011;5009;50.656;7.188;2023-08-12T02:04:32;12.23;;;11.13;;
9940;SDS011;5009;50.656;7.188;2023-08-12T02:06:58;12.93;;;11.73;;
9940;SDS011;5009;50.656;7.188;2023-08-12T02:09:24;13.63;;;12.20;;
9940;SDS011;5009;50.656;7.188;2023-08-12T02:11:49;12.45;;;11.45;;
9940;SDS011;5009;50.656;7.188;2023-08-12T02:14:15;13.30;;;12.15;;
9940;SDS011;5009;50.656;7.188;2023-08-12T02:16:41;12.48;;;11.38;;
9940;SDS011;5009;50.656;7.188;2023-08-12T02:19:06;13.40;;;12.30;;
9940;SDS011;5009;50.656;7.188;2023-08-12T02:21:32;14.05;;;12.95;;
9940;SDS011;5009;50.656;7.188;2023-08-12T02:23:57;13.57;;;12.23;;
9940;SDS011;5009;50.656;7.188;2023-08-12T02:26:23;13.43;;;12.23;;
9940;SDS011;5009;50.656;7.188;2023-08-12T02:28:49;13.82;;;12.70;;
9940;SDS011;5009;50.656;7.188;2023-08-12T02:31:17;13.10;;;11.80;;
9940;SDS011;5009;50.656;7.188;2023-08-12T02:33:43;13.82;;;12.63;;
9940;SDS011;5009;50.656;7.188;2023-08-12T02:36:08;14.02;;;12.93;;
9940;SDS011;5009;50.656;7.188;2023-08-12T02:38:34;13.45;;;12.13;;
9940;SDS011;5009;50.656;7.188;2023-08-12T02:41:00;14.15;;;12.75;;
9940;SDS011;5009;50.656;7.188;2023-08-12T02:43:25;15.88;;;14.43;;
9940;SDS011;5009;50.656;7.188;2023-08-12T02:45:51;14.85;;;13.55;;
9940;SDS011;5009;50.656;7.188;2023-08-12T02:48:17;14.50;;;13.18;;
9940;SDS011;5009;50.656;7.188;2023-08-12T02:50:43;13.95;;;12.75;;
9940;SDS011;5009;50.656;7.188;2023-08-12T02:53:09;15.25;;;13.85;;
9940;SDS011;5009;50.656;7.188;2023-08-12T02:55:34;12.00;;;10.90;;
9940;SDS011;5009;50.656;7.188;2023-08-12T02:58:00;12.15;;;11.07;;
9940;SDS011;5009;50.656;7.188;2023-08-12T03:00:26;12.77;;;11.75;;
9940;SDS011;5009;50.656;7.188;2023-08-12T03:02:52;12.43;;;11.00;;
9940;SDS011;5009;50.656;7.188;2023-08-12T03:05:18;11.20;;;10.20;;
9940;SDS011;5009;50.656;7.188;2023-08-12T03:07:44;10.75;;;9.85;;
9940;SDS011;5009;50.656;7.188;2023-08-12T03:10:09;11.50;;;10.57;;
9940;SDS011;5009;50.656;7.188;2023-08-12T03:12:35;11.15;;;10.35;;
9940;SDS011;5009;50.656;7.188;2023-08-12T03:15:01;12.10;;;11.20;;
9940;SDS011;5009;50.656;7.188;2023-08-12T03:17:28;12.43;;;11.43;;
9940;SDS011;5009;50.656;7.188;2023-08-12T03:19:53;12.38;;;11.38;;
9940;SDS011;5009;50.656;7.188;2023-08-12T03:22:19;14.00;;;12.63;;
9940;SDS011;5009;50.656;7.188;2023-08-12T03:24:45;14.13;;;12.93;;
9940;SDS011;5009;50.656;7.188;2023-08-12T03:27:11;14.63;;;13.43;;
9940;SDS011;5009;50.656;7.188;2023-08-12T03:29:37;13.48;;;12.48;;
9940;SDS011;5009;50.656;7.188;2023-08-12T03:32:02;14.23;;;12.98;;
9940;SDS011;5009;50.656;7.188;2023-08-12T03:34:28;13.13;;;11.93;;
9940;SDS011;5009;50.656;7.188;2023-08-12T03:36:57;13.27;;;11.95;;
9940;SDS011;5009;50.656;7.188;2023-08-12T03:39:22;12.52;;;11.52;;
9940;SDS011;5009;50.656;7.188;2023-08-12T03:41:48;11.80;;;10.90;;
9940;SDS011;5009;50.656;7.188;2023-08-12T03:44:15;13.98;;;12.70;;
9940;SDS011;5009;50.656;7.188;2023-08-12T03:46:41;13.63;;;12.50;;
9940;SDS011;5009;50.656;7.188;2023-08-12T03:49:06;13.45;;;12.30;;
9940;SDS011;5009;50.656;7.188;2023-08-12T03:51:32;13.60;;;12.50;;
9940;SDS011;5009;50.656;7.188;2023-08-12T03:53:58;12.70;;;11.65;;
9940;SDS011;5009;50.656;7.188;2023-08-12T03:56:23;12.95;;;11.77;;
9940;SDS011;5009;50.656;7.188;2023-08-12T03:58:49;12.68;;;11.57;;
9940;SDS011;5009;50.656;7.188;2023-08-12T04:01:14;12.75;;;11.65;;
9940;SDS011;5009;50.656;7.188;2023-08-12T04:03:40;12.32;;;11.20;;
9940;SDS011;5009;50.656;7.188;2023-08-12T04:06:06;11.70;;;10.80;;
9940;SDS011;5009;50.656;7.188;2023-08-12T04:08:31;12.45;;;11.40;;
9940;SDS011;5009;50.656;7.188;2023-08-12T04:10:57;11.80;;;10.70;;
9940;SDS011;5009;50.656;7.188;2023-08-12T04:13:23;11.77;;;10.80;;
9940;SDS011;5009;50.656;7.188;2023-08-12T04:15:49;12.27;;;11.25;;
9940;SDS011;5009;50.656;7.188;2023-08-12T04:18:15;11.80;;;10.82;;
9940;SDS011;5009;50.656;7.188;2023-08-12T04:20:41;12.38;;;11.23;;
9940;SDS011;5009;50.656;7.188;2023-08-12T04:23:07;13.25;;;11.13;;
9940;SDS011;5009;50.656;7.188;2023-08-12T04:25:32;12.73;;;11.55;;
9940;SDS011;5009;50.656;7.188;2023-08-12T04:27:58;11.10;;;10.23;;
9940;SDS011;5009;50.656;7.188;2023-08-12T04:30:24;12.15;;;10.85;;
9940;SDS011;5009;50.656;7.188;2023-08-12T04:32:49;12.88;;;11.77;;
9940;SDS011;5009;50.656;7.188;2023-08-12T04:35:15;13.35;;;12.15;;
9940;SDS011;5009;50.656;7.188;2023-08-12T04:37:40;12.38;;;11.30;;
9940;SDS011;5009;50.656;7.188;2023-08-12T04:40:06;13.40;;;12.30;;
9940;SDS011;5009;50.656;7.188;2023-08-12T04:45:09;13.48;;;12.20;;
9940;SDS011;5009;50.656;7.188;2023-08-12T04:47:35;12.30;;;11.30;;
9940;SDS011;5009;50.656;7.188;2023-08-12T04:50:02;11.98;;;10.88;;
9940;SDS011;5009;50.656;7.188;2023-08-12T04:52:27;11.20;;;10.40;;
9940;SDS011;5009;50.656;7.188;2023-08-12T04:54:53;11.77;;;10.88;;
9940;SDS011;5009;50.656;7.188;2023-08-12T04:57:19;12.32;;;11.32;;
9940;SDS011;5009;50.656;7.188;2023-08-12T04:59:44;11.32;;;10.32;;
9940;SDS011;5009;50.656;7.188;2023-08-12T05:02:10;12.43;;;11.32;;
9940;SDS011;5009;50.656;7.188;2023-08-12T05:04:36;10.50;;;9.40;;
9940;SDS011;5009;50.656;7.188;2023-08-12T05:07:01;10.25;;;9.43;;
9940;SDS011;5009;50.656;7.188;2023-08-12T05:09:27;10.07;;;9.07;;
9940;SDS011;5009;50.656;7.188;2023-08-12T05:11:52;8.45;;;7.75;;
9940;SDS011;5009;50.656;7.188;2023-08-12T05:14:18;9.90;;;9.00;;
9940;SDS011;5009;50.656;7.188;2023-08-12T05:16:43;9.80;;;9.00;;
9940;SDS011;5009;50.656;7.188;2023-08-12T05:19:09;10.38;;;9.57;;
9940;SDS011;5009;50.656;7.188;2023-08-12T05:21:34;8.52;;;7.72;;
9940;SDS011;5009;50.656;7.188;2023-08-12T05:24:00;10.85;;;9.95;;
9940;SDS011;5009;50.656;7.188;2023-08-12T05:26:26;10.93;;;10.10;;
9940;SDS011;5009;50.656;7.188;2023-08-12T05:28:51;10.90;;;9.95;;
9940;SDS011;5009;50.656;7.188;2023-08-12T05:31:17;10.50;;;9.50;;
9940;SDS011;5009;50.656;7.188;2023-08-12T05:33:42;8.85;;;8.05;;
9940;SDS011;5009;50.656;7.188;2023-08-12T05:36:08;9.85;;;9.05;;
9940;SDS011;5009;50.656;7.188;2023-08-12T05:38:34;9.82;;;8.82;;
9940;SDS011;5009;50.656;7.188;2023-08-12T05:40:59;9.20;;;8.40;;
9940;SDS011;5009;50.656;7.188;2023-08-12T05:43:25;9.20;;;8.45;;
9940;SDS011;5009;50.656;7.188;2023-08-12T05:45:50;9.70;;;8.90;;
9940;SDS011;5009;50.656;7.188;2023-08-12T05:48:16;9.60;;;8.80;;
9940;SDS011;5009;50.656;7.188;2023-08-12T05:50:42;7.93;;;7.22;;
9940;SDS011;5009;50.656;7.188;2023-08-12T05:53:08;9.48;;;8.57;;
9940;SDS011;5009;50.656;7.188;2023-08-12T05:55:34;8.52;;;7.72;;
9940;SDS011;5009;50.656;7.188;2023-08-12T05:58:00;8.10;;;7.38;;
9940;SDS011;5009;50.656;7.188;2023-08-12T06:00:25;7.70;;;7.10;;
9940;SDS011;5009;50.656;7.188;2023-08-12T06:02:51;7.50;;;6.88;;
9940;SDS011;5009;50.656;7.188;2023-08-12T06:05:17;7.13;;;5.60;;
9940;SDS011;5009;50.656;7.188;2023-08-12T06:07:43;6.75;;;6.25;;
9940;SDS011;5009;50.656;7.188;2023-08-12T06:10:09;7.88;;;5.88;;
9940;SDS011;5009;50.656;7.188;2023-08-12T06:12:34;6.03;;;5.43;;
9940;SDS011;5009;50.656;7.188;2023-08-12T06:15:00;7.72;;;4.95;;
9940;SDS011;5009;50.656;7.188;2023-08-12T06:17:26;6.70;;;4.70;;
9940;SDS011;5009;50.656;7.188;2023-08-12T06:19:51;5.63;;;4.72;;
9940;SDS011;5009;50.656;7.188;2023-08-12T06:22:17;5.53;;;4.38;;
9940;SDS011;5009;50.656;7.188;2023-08-12T06:24:42;4.60;;;4.20;;
9940;SDS011;5009;50.656;7.188;2023-08-12T06:27:08;5.25;;;3.72;;
9940;SDS011;5009;50.656;7.188;2023-08-12T06:29:34;4.93;;;4.35;;
9940;SDS011;5009;50.656;7.188;2023-08-12T06:31:59;5.32;;;4.63;;
9940;SDS011;5009;50.656;7.188;2023-08-12T06:34:25;6.22;;;4.97;;
9940;SDS011;5009;50.656;7.188;2023-08-12T06:36:51;4.95;;;4.45;;
9940;SDS011;5009;50.656;7.188;2023-08-12T06:39:16;5.05;;;4.65;;
9940;SDS011;5009;50.656;7.188;2023-08-12T06:41:42;4.78;;;4.40;;
9940;SDS011;5009;50.656;7.188;2023-08-12T06:44:07;4.97;;;3.80;;
9940;SDS011;5009;50.656;7.188;2023-08-12T06:46:33;4.47;;;4.18;;
9940;SDS011;5009;50.656;7.188;2023-08-12T06:48:58;4.40;;;3.97;;
9940;SDS011;5009;50.656;7.188;2023-08-12T06:51:24;4.70;;;3.83;;
9940;SDS011;5009;50.656;7.188;2023-08-12T06:53:50;4.70;;;4.30;;
9940;SDS011;5009;50.656;7.188;2023-08-12T06:56:15;6.38;;;4.43;;
9940;SDS011;5009;50.656;7.188;2023-08-12T06:58:41;5.55;;;4.60;;
9940;SDS011;5009;50.656;7.188;2023-08-12T07:01:06;4.70;;;4.28;;
9940;SDS011;5009;50.656;7.188;2023-08-12T07:03:32;4.10;;;3.75;;
9940;SDS011;5009;50.656;7.188;2023-08-12T07:05:58;4.82;;;4.43;;
9940;SDS011;5009;50.656;7.188;2023-08-12T07:08:23;5.05;;;4.25;;
9940;SDS011;5009;50.656;7.188;2023-08-12T07:10:49;5.28;;;4.78;;
9940;SDS011;5009;50.656;7.188;2023-08-12T07:13:14;6.40;;;4.60;;
9940;SDS011;5009;50.656;7.188;2023-08-12T07:15:40;4.40;;;4.00;;
9940;SDS011;5009;50.656;7.188;2023-08-12T07:18:05;5.63;;;3.97;;
9940;SDS011;5009;50.656;7.188;2023-08-12T07:20:31;7.32;;;4.78;;
9940;SDS011;5009;50.656;7.188;2023-08-12T07:22:57;6.93;;;5.05;;
9940;SDS011;5009;50.656;7.188;2023-08-12T07:25:22;4.53;;;4.13;;
9940;SDS011;5009;50.656;7.188;2023-08-12T07:27:48;5.65;;;5.07;;
9940;SDS011;5009;50.656;7.188;2023-08-12T07:30:13;5.25;;;4.55;;
9940;SDS011;5009;50.656;7.188;2023-08-12T07:32:39;4.95;;;4.45;;
9940;SDS011;5009;50.656;7.188;2023-08-12T07:35:05;4.80;;;4.40;;
9940;SDS011;5009;50.656;7.188;2023-08-12T07:37:30;5.18;;;4.78;;
9940;SDS011;5009;50.656;7.188;2023-08-12T07:39:56;5.65;;;4.80;;
9940;SDS011;5009;50.656;7.188;2023-08-12T07:42:22;5.95;;;4.88;;
9940;SDS011;5009;50.656;7.188;2023-08-12T07:44:48;6.05;;;4.80;;
9940;SDS011;5009;50.656;7.188;2023-08-12T07:47:13;5.45;;;4.78;;
9940;SDS011;5009;50.656;7.188;2023-08-12T07:49:40;5.63;;;5.13;;
9940;SDS011;5009;50.656;7.188;2023-08-12T07:52:06;5.45;;;4.90;;
9940;SDS011;5009;50.656;7.188;2023-08-12T07:54:31;5.32;;;4.82;;
9940;SDS011;5009;50.656;7.188;2023-08-12T07:56:57;6.32;;;5.30;;
9940;SDS011;5009;50.656;7.188;2023-08-12T07:59:22;5.18;;;4.68;;
9940;SDS011;5009;50.656;7.188;2023-08-12T08:01:48;5.32;;;4.82;;
9940;SDS011;5009;50.656;7.188;2023-08-12T08:04:14;6.78;;;5.22;;
9940;SDS011;5009;50.656;7.188;2023-08-12T08:06:39;5.85;;;5.20;;
9940;SDS011;5009;50.656;7.188;2023-08-12T08:09:05;5.28;;;4.75;;
9940;SDS011;5009;50.656;7.188;2023-08-12T08:11:31;6.68;;;5.30;;
9940;SDS011;5009;50.656;7.188;2023-08-12T08:13:57;6.40;;;5.20;;
9940;SDS011;5009;50.656;7.188;2023-08-12T08:16:23;6.28;;;5.70;;
9940;SDS011;5009;50.656;7.188;2023-08-12T08:18:49;6.43;;;4.70;;
9940;SDS011;5009;50.656;7.188;2023-08-12T08:21:15;5.55;;;4.88;;
9940;SDS011;5009;50.656;7.188;2023-08-12T08:23:40;5.35;;;4.85;;
9940;SDS011;5009;50.656;7.188;2023-08-12T08:26:07;6.68;;;5.07;;
9940;SDS011;5009;50.656;7.188;2023-08-12T08:28:33;4.75;;;4.22;;
9940;SDS011;5009;50.656;7.188;2023-08-12T08:30:59;4.75;;;4.35;;
9940;SDS011;5009;50.656;7.188;2023-08-12T08:33:25;4.88;;;4.47;;
9940;SDS011;5009;50.656;7.188;2023-08-12T08:35:51;5.50;;;4.93;;
9940;SDS011;5009;50.656;7.188;2023-08-12T08:38:16;4.55;;;4.15;;
9940;SDS011;5009;50.656;7.188;2023-08-12T08:40:42;4.80;;;3.67;;
9940;SDS011;5009;50.656;7.188;2023-08-12T08:43:08;4.30;;;4.00;;
9940;SDS011;5009;50.656;7.188;2023-08-12T08:45:35;4.65;;;4.25;;
9940;SDS011;5009;50.656;7.188;2023-08-12T08:48:02;6.13;;;4.05;;
9940;SDS011;5009;50.656;7.188;2023-08-12T08:50:31;4.68;;;4.28;;
9940;SDS011;5009;50.656;7.188;2023-08-12T08:52:57;4.43;;;4.00;;
9940;SDS011;5009;50.656;7.188;2023-08-12T08:55:22;4.63;;;4.20;;
9940;SDS011;5009;50.656;7.188;2023-08-12T08:57:48;4.25;;;3.92;;
9940;SDS011;5009;50.656;7.188;2023-08-12T09:00:15;6.15;;;4.15;;
9940;SDS011;5009;50.656;7.188;2023-08-12T09:02:51;4.50;;;3.90;;
9940;SDS011;5009;50.656;7.188;2023-08-12T09:05:18;5.00;;;3.90;;
9940;SDS011;5009;50.656;7.188;2023-08-12T09:07:45;3.95;;;3.60;;
9940;SDS011;5009;50.656;7.188;2023-08-12T09:10:12;4.22;;;3.92;;
9940;SDS011;5009;50.656;7.188;2023-08-12T09:12:38;4.88;;;4.05;;
9940;SDS011;5009;50.656;7.188;2023-08-12T09:15:05;4.55;;;4.05;;
9940;SDS011;5009;50.656;7.188;2023-08-12T09:17:32;6.28;;;4.40;;
9940;SDS011;5009;50.656;7.188;2023-08-12T09:19:57;6.00;;;3.95;;
9940;SDS011;5009;50.656;7.188;2023-08-12T09:22:24;5.00;;;4.20;;
9940;SDS011;5009;50.656;7.188;2023-08-12T09:24:55;3.92;;;3.63;;
9940;SDS011;5009;50.656;7.188;2023-08-12T09:27:21;4.70;;;3.67;;
9940;SDS011;5009;50.656;7.188;2023-08-12T09:29:47;6.10;;;3.97;;
9940;SDS011;5009;50.656;7.188;2023-08-12T09:32:13;4.57;;;4.18;;
9940;SDS011;5009;50.656;7.188;2023-08-12T09:34:47;4.40;;;3.75;;
9940;SDS011;5009;50.656;7.188;2023-08-12T09:37:16;4.57;;;3.80;;
9940;SDS011;5009;50.656;7.188;2023-08-12T09:39:43;5.85;;;3.75;;
9940;SDS011;5009;50.656;7.188;2023-08-12T09:42:10;5.45;;;3.47;;
9940;SDS011;5009;50.656;7.188;2023-08-12T09:44:37;3.90;;;3.60;;
9940;SDS011;5009;50.656;7.188;2023-08-12T09:47:03;4.25;;;3.85;;
9940;SDS011;5009;50.656;7.188;2023-08-12T09:49:29;4.75;;;4.00;;
9940;SDS011;5009;50.656;7.188;2023-08-12T09:51:57;3.75;;;3.45;;
9940;SDS011;5009;50.656;7.188;2023-08-12T09:54:25;4.25;;;3.80;;
9940;SDS011;5009;50.656;7.188;2023-08-12T09:56:54;4.35;;;3.88;;
9940;SDS011;5009;50.656;7.188;2023-08-12T09:59:22;4.75;;;3.90;;
9940;SDS011;5009;50.656;7.188;2023-08-12T10:01:49;3.90;;;3.50;;
9940;SDS011;5009;50.656;7.188;2023-08-12T10:04:17;4.80;;;3.58;;
9940;SDS011;5009;50.656;7.188;2023-08-12T10:06:45;4.20;;;3.80;;
9940;SDS011;5009;50.656;7.188;2023-08-12T10:09:12;6.55;;;4.18;;
9940;SDS011;5009;50.656;7.188;2023-08-12T10:11:40;4.85;;;3.58;;
9940;SDS011;5009;50.656;7.188;2023-08-12T10:14:07;3.88;;;3.33;;
9940;SDS011;5009;50.656;7.188;2023-08-12T10:16:34;3.75;;;3.45;;
9940;SDS011;5009;50.656;7.188;2023-08-12T10:19:00;3.60;;;3.30;;
9940;SDS011;5009;50.656;7.188;2023-08-12T10:21:27;3.78;;;3.40;;
9940;SDS011;5009;50.656;7.188;2023-08-12T10:23:53;6.57;;;3.50;;
9940;SDS011;5009;50.656;7.188;2023-08-12T10:26:21;4.28;;;2.97;;
9940;SDS011;5009;50.656;7.188;2023-08-12T10:28:48;3.17;;;2.90;;
9940;SDS011;5009;50.656;7.188;2023-08-12T10:31:14;6.65;;;3.70;;
9940;SDS011;5009;50.656;7.188;2023-08-12T10:33:40;3.60;;;3.30;;
9940;SDS011;5009;50.656;7.188;2023-08-12T10:36:06;4.00;;;3.60;;
9940;SDS011;5009;50.656;7.188;2023-08-12T10:38:32;4.70;;;3.70;;
9940;SDS011;5009;50.656;7.188;2023-08-12T10:43:58;4.20;;;3.80;;
9940;SDS011;5009;50.656;7.188;2023-08-12T10:46:30;3.58;;;3.28;;
9940;SDS011;5009;50.656;7.188;2023-08-12T10:49:10;5.00;;;3.50;;
9940;SDS011;5009;50.656;7.188;2023-08-12T10:54:10;3.75;;;3.50;;
9940;SDS011;5009;50.656;7.188;2023-08-12T10:59:47;4.60;;;4.03;;
9940;SDS011;5009;50.656;7.188;2023-08-12T11:02:17;4.15;;;3.65;;
9940;SDS011;5009;50.656;7.188;2023-08-12T11:04:49;4.28;;;3.88;;
9940;SDS011;5009;50.656;7.188;2023-08-12T11:10:10;4.55;;;3.80;;
9940;SDS011;5009;50.656;7.188;2023-08-12T11:12:38;4.53;;;4.13;;
9940;SDS011;5009;50.656;7.188;2023-08-12T11:15:05;4.25;;;3.90;;
9940;SDS011;5009;50.656;7.188;2023-08-12T11:17:34;4.22;;;3.92;;
9940;SDS011;5009;50.656;7.188;2023-08-12T11:20:02;7.00;;;4.57;;
9940;SDS011;5009;50.656;7.188;2023-08-12T11:22:34;3.58;;;3.33;;
9940;SDS011;5009;50.656;7.188;2023-08-12T11:25:09;4.10;;;3.80;;
9940;SDS011;5009;50.656;7.188;2023-08-12T11:27:36;5.60;;;3.75;;
9940;SDS011;5009;50.656;7.188;2023-08-12T11:30:04;4.20;;;3.75;;
9940;SDS011;5009;50.656;7.188;2023-08-12T11:32:30;4.72;;;4.30;;
9940;SDS011;5009;50.656;7.188;2023-08-12T11:34:55;4.30;;;3.90;;
9940;SDS011;5009;50.656;7.188;2023-08-12T11:37:21;3.67;;;3.38;;
9940;SDS011;5009;50.656;7.188;2023-08-12T11:39:47;4.85;;;3.42;;
9940;SDS011;5009;50.656;7.188;2023-08-12T11:42:12;4.30;;;3.80;;
9940;SDS011;5009;50.656;7.188;2023-08-12T11:44:39;4.13;;;3.65;;
9940;SDS011;5009;50.656;7.188;2023-08-12T11:47:06;4.07;;;3.50;;
9940;SDS011;5009;50.656;7.188;2023-08-12T11:49:32;3.25;;;2.90;;
9940;SDS011;5009;50.656;7.188;2023-08-12T11:51:58;3.53;;;3.22;;
9940;SDS011;5009;50.656;7.188;2023-08-12T11:54:24;4.90;;;3.25;;
9940;SDS011;5009;50.656;7.188;2023-08-12T11:56:50;4.55;;;2.95;;
9940;SDS011;5009;50.656;7.188;2023-08-12T11:59:15;2.45;;;2.35;;
9940;SDS011;5009;50.656;7.188;2023-08-12T12:01:41;3.50;;;2.40;;
9940;SDS011;5009;50.656;7.188;2023-08-12T12:04:13;2.20;;;2.10;;
9940;SDS011;5009;50.656;7.188;2023-08-12T12:06:39;2.67;;;2.47;;
9940;SDS011;5009;50.656;7.188;2023-08-12T12:09:05;2.65;;;2.40;;
9940;SDS011;5009;50.656;7.188;2023-08-12T12:11:35;2.10;;;1.90;;
9940;SDS011;5009;50.656;7.188;2023-08-12T12:14:04;2.00;;;1.90;;
9940;SDS011;5009;50.656;7.188;2023-08-12T12:16:40;2.53;;;2.33;;
9940;SDS011;5009;50.656;7.188;2023-08-12T12:19:20;2.17;;;2.08;;
9940;SDS011;5009;50.656;7.188;2023-08-12T12:21:56;2.53;;;2.33;;
9940;SDS011;5009;50.656;7.188;2023-08-12T12:24:21;2.38;;;1.80;;
9940;SDS011;5009;50.656;7.188;2023-08-12T12:26:47;2.22;;;2.03;;
9940;SDS011;5009;50.656;7.188;2023-08-12T12:29:13;2.25;;;2.10;;
9940;SDS011;5009;50.656;7.188;2023-08-12T12:31:39;2.50;;;2.40;;
9940;SDS011;5009;50.656;7.188;2023-08-12T12:34:06;2.33;;;2.13;;
9940;SDS011;5009;50.656;7.188;2023-08-12T12:36:34;2.90;;;2.45;;
9940;SDS011;5009;50.656;7.188;2023-08-12T12:39:02;2.20;;;2.00;;
9940;SDS011;5009;50.656;7.188;2023-08-12T12:41:28;2.53;;;2.33;;
9940;SDS011;5009;50.656;7.188;2023-08-12T12:43:54;2.20;;;2.10;;
9940;SDS011;5009;50.656;7.188;2023-08-12T12:46:19;1.95;;;1.85;;
9940;SDS011;5009;50.656;7.188;2023-08-12T12:48:45;2.60;;;2.40;;
9940;SDS011;5009;50.656;7.188;2023-08-12T12:51:11;2.22;;;2.13;;
9940;SDS011;5009;50.656;7.188;2023-08-12T12:53:37;3.08;;;2.30;;
9940;SDS011;5009;50.656;7.188;2023-08-12T12:56:03;2.30;;;2.13;;
9940;SDS011;5009;50.656;7.188;2023-08-12T12:58:32;2.38;;;2.08;;
9940;SDS011;5009;50.656;7.188;2023-08-12T13:01:02;2.85;;;2.55;;
9940;SDS011;5009;50.656;7.188;2023-08-12T13:03:31;1.77;;;1.67;;
9940;SDS011;5009;50.656;7.188;2023-08-12T13:05:57;2.33;;;2.20;;
9940;SDS011;5009;50.656;7.188;2023-08-12T13:08:23;2.25;;;1.92;;
9940;SDS011;5009;50.656;7.188;2023-08-12T13:10:49;2.05;;;1.88;;
9940;SDS011;5009;50.656;7.188;2023-08-12T13:13:15;2.33;;;2.15;;
9940;SDS011;5009;50.656;7.188;2023-08-12T13:15:42;2.33;;;1.80;;
9940;SDS011;5009;50.656;7.188;2023-08-12T13:18:08;1.60;;;1.55;;
9940;SDS011;5009;50.656;7.188;2023-08-12T13:20:34;2.20;;;2.00;;
9940;SDS011;5009;50.656;7.188;2023-08-12T13:23:00;2.17;;;1.80;;
9940;SDS011;5009;50.656;7.188;2023-08-12T13:25:28;3.33;;;1.70;;
9940;SDS011;5009;50.656;7.188;2023-08-12T13:27:55;1.50;;;1.40;;
9940;SDS011;5009;50.656;7.188;2023-08-12T13:30:20;1.38;;;1.30;;
9940;SDS011;5009;50.656;7.188;2023-08-12T13:32:46;1.88;;;1.77;;
9940;SDS011;5009;50.656;7.188;2023-08-12T13:35:11;1.88;;;1.77;;
9940;SDS011;5009;50.656;7.188;2023-08-12T13:37:37;1.73;;;1.63;;
9940;SDS011;5009;50.656;7.188;2023-08-12T13:40:03;1.92;;;1.83;;
9940;SDS011;5009;50.656;7.188;2023-08-12T13:42:29;1.85;;;1.75;;
9940;SDS011;5009;50.656;7.188;2023-08-12T13:44:54;1.95;;;1.48;;
9940;SDS011;5009;50.656;7.188;2023-08-12T13:47:21;1.73;;;1.63;;
9940;SDS011;5009;50.656;7.188;2023-08-12T13:49:46;1.80;;;1.70;;
9940;SDS011;5009;50.656;7.188;2023-08-12T13:52:12;2.15;;;1.55;;
9940;SDS011;5009;50.656;7.188;2023-08-12T13:54:37;1.52;;;1.50;;
9940;SDS011;5009;50.656;7.188;2023-08-12T13:57:03;1.80;;;1.67;;
9940;SDS011;5009;50.656;7.188;2023-08-12T13:59:29;1.70;;;1.60;;
9940;SDS011;5009;50.656;7.188;2023-08-12T14:01:55;1.77;;;1.60;;
9940;SDS011;5009;50.656;7.188;2023-08-12T14:04:20;1.60;;;1.50;;
9940;SDS011;5009;50.656;7.188;2023-08-12T14:06:46;1.75;;;1.65;;
9940;SDS011;5009;50.656;7.188;2023-08-12T14:09:11;3.22;;;1.70;;
9940;SDS011;5009;50.656;7.188;2023-08-12T14:11:39;1.80;;;1.70;;
9940;SDS011;5009;50.656;7.188;2023-08-12T14:14:05;1.58;;;1.48;;
9940;SDS011;5009;50.656;7.188;2023-08-12T14:16:30;1.58;;;1.50;;
9940;SDS011;5009;50.656;7.188;2023-08-12T14:18:56;1.85;;;1.38;;
9940;SDS011;5009;50.656;7.188;2023-08-12T14:21:21;2.30;;;1.77;;
9940;SDS011;5009;50.656;7.188;2023-08-12T14:23:47;1.90;;;1.80;;
9940;SDS011;5009;50.656;7.188;2023-08-12T14:26:13;2.08;;;1.92;;
9940;SDS011;5009;50.656;7.188;2023-08-12T14:28:38;1.70;;;1.60;;
9940;SDS011;5009;50.656;7.188;2023-08-12T14:31:04;1.52;;;1.42;;
9940;SDS011;5009;50.656;7.188;2023-08-12T14:33:29;1.05;;;1.05;;
9940;SDS011;5009;50.656;7.188;2023-08-12T14:35:58;1.90;;;0.90;;
9940;SDS011;5009;50.656;7.188;2023-08-12T14:38:24;1.50;;;1.20;;
9940;SDS011;5009;50.656;7.188;2023-08-12T14:40:49;2.30;;;2.10;;
9940;SDS011;5009;50.656;7.188;2023-08-12T14:43:15;4.55;;;2.67;;
9940;SDS011;5009;50.656;7.188;2023-08-12T14:45:40;5.95;;;5.43;;
9940;SDS011;5009;50.656;7.188;2023-08-12T14:48:06;4.00;;;3.67;;
9940;SDS011;5009;50.656;7.188;2023-08-12T14:50:32;2.40;;;2.22;;
9940;SDS011;5009;50.656;7.188;2023-08-12T14:52:57;1.85;;;1.75;;
9940;SDS011;5009;50.656;7.188;2023-08-12T14:55:23;2.58;;;2.47;;
9940;SDS011;5009;50.656;7.188;2023-08-12T14:57:49;3.90;;;3.60;;
9940;SDS011;5009;50.656;7.188;2023-08-12T15:00:14;5.57;;;5.07;;
9940;SDS011;5009;50.656;7.188;2023-08-12T15:02:40;3.78;;;3.25;;
9940;SDS011;5009;50.656;7.188;2023-08-12T15:05:06;3.00;;;2.80;;
9940;SDS011;5009;50.656;7.188;2023-08-12T15:07:32;4.13;;;3.63;;
9940;SDS011;5009;50.656;7.188;2023-08-12T15:09:57;4.22;;;3.22;;
9940;SDS011;5009;50.656;7.188;2023-08-12T15:12:24;5.32;;;3.00;;
9940;SDS011;5009;50.656;7.188;2023-08-12T15:14:50;2.28;;;2.08;;
9940;SDS011;5009;50.656;7.188;2023-08-12T15:17:15;2.00;;;1.80;;